createdAt,value
2023-01-17T13:20:18.267Z,137
2023-01-17T13:25:17.223Z,153
2023-01-17T13:30:17.353Z,169
2023-01-17T13:35:17.397Z,185
2023-01-17T13:40:17.443Z,201
2023-01-17T13:45:17.363Z,216
2023-01-17T13:50:17.769Z,233
2023-01-17T13:55:17.410Z,246
2023-01-17T14:00:17.538Z,261
2023-01-17T14:05:17.480Z,275
2023-01-17T14:10:18.735Z,290
2023-01-17T14:15:17.444Z,302
2023-01-17T14:20:17.948Z,313
2023-01-17T14:25:17.495Z,323
2023-01-17T14:30:17.869Z,332
2023-01-17T14:35:17.678Z,342
2023-01-17T14:40:17.579Z,352
2023-01-17T14:45:17.492Z,361
2023-01-17T14:50:17.726Z,369
2023-01-17T14:55:17.688Z,376
2023-01-17T15:00:17.799Z,385
2023-01-17T15:05:17.659Z,392
2023-01-17T15:10:17.768Z,399
2023-01-17T15:15:17.616Z,406
2023-01-17T15:20:17.678Z,411
2023-01-17T15:25:17.688Z,418
2023-01-17T15:30:17.977Z,425
2023-01-17T15:35:17.787Z,400
2023-01-17T15:40:18.126Z,443
2023-01-17T15:45:17.711Z,445
2023-01-17T15:50:18.407Z,448
2023-01-17T15:55:17.774Z,452
2023-01-17T16:00:17.807Z,453
2023-01-17T16:05:18.161Z,454
2023-01-17T16:10:18.624Z,454
2023-01-17T16:15:18.546Z,458
2023-01-17T16:20:18.058Z,459
2023-01-17T16:25:17.957Z,460
2023-01-17T16:30:17.942Z,461
2023-01-17T16:35:17.908Z,463
2023-01-17T16:40:18.371Z,464
2023-01-17T16:45:17.981Z,463
2023-01-17T16:50:18.467Z,464
2023-01-17T16:55:17.915Z,466
2023-01-17T17:00:18.104Z,465
2023-01-17T17:05:18.262Z,462
2023-01-17T17:10:18.020Z,462
2023-01-17T17:15:18.045Z,461
2023-01-17T17:20:18.146Z,459
2023-01-17T17:25:17.902Z,456
2023-01-17T17:30:18.075Z,453
2023-01-17T17:35:18.197Z,450
2023-01-17T17:40:18.042Z,431
2023-01-17T17:45:18.078Z,417
2023-01-17T17:50:18.635Z,413
2023-01-17T17:55:18.179Z,424
2023-01-17T18:00:18.453Z,430
2023-01-17T18:05:18.160Z,424
2023-01-17T18:10:19.132Z,418
2023-01-17T18:15:16.196Z,412
2023-01-17T18:20:16.375Z,393
2023-01-17T18:25:16.275Z,361
2023-01-17T18:30:16.328Z,293
2023-01-17T18:35:16.925Z,402
2023-01-17T18:40:16.399Z,412
2023-01-17T18:45:16.244Z,410
2023-01-17T18:50:16.759Z,367
2023-01-17T18:55:16.376Z,252
2023-01-17T19:00:16.554Z,291
2023-01-17T19:05:16.437Z,333
2023-01-17T19:10:16.632Z,348
2023-01-17T19:15:16.514Z,326
2023-01-17T19:20:16.574Z,271
2023-01-17T19:25:16.503Z,271
2023-01-17T19:30:16.608Z,302
2023-01-17T19:35:17.062Z,196
2023-01-17T19:40:16.457Z,93
2023-01-17T19:45:16.494Z,78
2023-01-17T19:50:16.521Z,68
2023-01-17T19:55:16.436Z,74
2023-01-17T20:00:16.786Z,71
2023-01-17T20:05:16.476Z,75
2023-01-17T20:10:17.602Z,75
2023-01-17T20:15:16.659Z,68
2023-01-17T20:20:16.597Z,63
2023-01-17T20:25:16.538Z,57
2023-01-17T20:30:20.508Z,51
2023-01-17T20:35:16.737Z,44
2023-01-17T20:40:16.691Z,38
2023-01-17T20:45:16.656Z,34
2023-01-17T20:50:17.229Z,29
2023-01-17T20:55:16.604Z,24
2023-01-17T21:00:16.678Z,22
2023-01-17T21:05:16.671Z,19
2023-01-17T21:10:16.760Z,16
2023-01-17T21:15:16.631Z,11
2023-01-17T21:20:17.006Z,6
2023-01-17T21:25:16.850Z,3
2023-01-17T21:30:16.731Z,0
2023-01-17T21:35:16.824Z,0
2023-01-17T21:40:16.792Z,0
2023-01-17T21:45:16.702Z,0
2023-01-17T21:50:35.594Z,0
2023-01-17T21:55:16.788Z,0
